sensor_id;sensor_type;location;lat;lon;timestamp;temperature;humidity
1405;DHT22;697;51.114;6.542;2023-03-13T00:00:58;12.10;99.90
1405;DHT22;697;51.114;6.542;2023-03-13T00:03:26;12.10;99.90
1405;DHT22;697;51.114;6.542;2023-03-13T00:05:57;12.10;99.90
1405;DHT22;697;51.114;6.542;2023-03-13T00:08:24;12.10;99.90
1405;DHT22;697;51.114;6.542;2023-03-13T00:10:51;12.20;99.90
1405;DHT22;697;51.114;6.542;2023-03-13T00:13:17;12.20;99.90
1405;DHT22;697;51.114;6.542;2023-03-13T00:15:44;12.20;99.90
1405;DHT22;697;51.114;6.542;2023-03-13T00:18:11;12.30;99.90
1405;DHT22;697;51.114;6.542;2023-03-13T00:20:39;12.20;99.90
1405;DHT22;697;51.114;6.542;2023-03-13T00:23:06;12.20;99.90
1405;DHT22;697;51.114;6.542;2023-03-13T00:25:32;12.20;99.90
1405;DHT22;697;51.114;6.542;2023-03-13T00:27:59;12.30;99.90
1405;DHT22;697;51.114;6.542;2023-03-13T00:30:26;12.30;99.90
1405;DHT22;697;51.114;6.542;2023-03-13T00:32:52;12.30;99.90
1405;DHT22;697;51.114;6.542;2023-03-13T00:35:19;12.30;99.90
1405;DHT22;697;51.114;6.542;2023-03-13T00:37:47;12.30;99.90
1405;DHT22;697;51.114;6.542;2023-03-13T00:40:14;12.30;99.90
1405;DHT22;697;51.114;6.542;2023-03-13T00:42:40;12.30;99.90
1405;DHT22;697;51.114;6.542;2023-03-13T00:45:08;12.20;99.90
1405;DHT22;697;51.114;6.542;2023-03-13T00:47:35;12.20;99.90
1405;DHT22;697;51.114;6.542;2023-03-13T00:50:01;12.20;99.90
1405;DHT22;697;51.114;6.542;2023-03-13T00:52:28;12.30;99.90
1405;DHT22;697;51.114;6.542;2023-03-13T00:54:56;12.20;99.90
1405;DHT22;697;51.114;6.542;2023-03-13T00:57:23;12.30;99.90
1405;DHT22;697;51.114;6.542;2023-03-13T00:59:49;12.20;99.90
1405;DHT22;697;51.114;6.542;2023-03-13T01:02:16;12.30;99.90
1405;DHT22;697;51.114;6.542;2023-03-13T01:04:43;12.30;99.90
1405;DHT22;697;51.114;6.542;2023-03-13T01:07:09;12.30;99.90
1405;DHT22;697;51.114;6.542;2023-03-13T01:09:36;12.20;99.90
1405;DHT22;697;51.114;6.542;2023-03-13T01:12:04;12.20;99.90
1405;DHT22;697;51.114;6.542;2023-03-13T01:14:31;12.20;99.90
1405;DHT22;697;51.114;6.542;2023-03-13T01:16:58;12.30;99.90
1405;DHT22;697;51.114;6.542;2023-03-13T01:19:24;12.30;99.90
1405;DHT22;697;51.114;6.542;2023-03-13T01:21:51;12.30;99.90
1405;DHT22;697;51.114;6.542;2023-03-13T01:24:18;12.30;99.90
1405;DHT22;697;51.114;6.542;2023-03-13T01:26:44;12.30;99.90
1405;DHT22;697;51.114;6.542;2023-03-13T01:29:13;12.30;99.90
1405;DHT22;697;51.114;6.542;2023-03-13T01:31:39;12.40;99.90
1405;DHT22;697;51.114;6.542;2023-03-13T01:34:07;12.40;99.90
1405;DHT22;697;51.114;6.542;2023-03-13T01:36:36;12.40;99.90
1405;DHT22;697;51.114;6.542;2023-03-13T01:39:04;12.30;99.90
1405;DHT22;697;51.114;6.542;2023-03-13T01:41:31;12.30;99.90
1405;DHT22;697;51.114;6.542;2023-03-13T01:43:58;12.30;99.90
1405;DHT22;697;51.114;6.542;2023-03-13T01:46:26;12.30;99.90
1405;DHT22;697;51.114;6.542;2023-03-13T01:48:56;12.30;99.90
1405;DHT22;697;51.114;6.542;2023-03-13T01:51:28;12.30;99.90
1405;DHT22;697;51.114;6.542;2023-03-13T01:54:00;12.30;99.90
1405;DHT22;697;51.114;6.542;2023-03-13T01:56:35;12.30;99.90
1405;DHT22;697;51.114;6.542;2023-03-13T01:59:04;12.30;99.90
1405;DHT22;697;51.114;6.542;2023-03-13T02:01:33;12.20;99.90
1405;DHT22;697;51.114;6.542;2023-03-13T02:04:00;12.20;99.90
1405;DHT22;697;51.114;6.542;2023-03-13T02:06:29;12.10;99.90
1405;DHT22;697;51.114;6.542;2023-03-13T02:08:59;12.20;99.90
1405;DHT22;697;51.114;6.542;2023-03-13T02:11:38;12.10;99.90
1405;DHT22;697;51.114;6.542;2023-03-13T02:14:09;12.10;99.90
1405;DHT22;697;51.114;6.542;2023-03-13T02:16:38;12.10;99.90
1405;DHT22;697;51.114;6.542;2023-03-13T02:19:13;12.10;99.90
1405;DHT22;697;51.114;6.542;2023-03-13T02:21:49;12.10;99.90
1405;DHT22;697;51.114;6.542;2023-03-13T02:24:23;12.00;99.90
1405;DHT22;697;51.114;6.542;2023-03-13T02:26:53;12.10;99.90
1405;DHT22;697;51.114;6.542;2023-03-13T02:29:20;12.00;99.90
1405;DHT22;697;51.114;6.542;2023-03-13T02:31:47;12.10;99.90
1405;DHT22;697;51.114;6.542;2023-03-13T02:34:17;12.10;99.90
1405;DHT22;697;51.114;6.542;2023-03-13T02:36:47;12.10;99.90
1405;DHT22;697;51.114;6.542;2023-03-13T02:39:17;12.10;99.90
1405;DHT22;697;51.114;6.542;2023-03-13T02:41:46;12.10;99.90
1405;DHT22;697;51.114;6.542;2023-03-13T02:44:15;12.10;99.90
1405;DHT22;697;51.114;6.542;2023-03-13T02:46:46;12.10;99.90
1405;DHT22;697;51.114;6.542;2023-03-13T02:49:20;12.10;99.90
1405;DHT22;697;51.114;6.542;2023-03-13T02:51:47;12.10;99.90
1405;DHT22;697;51.114;6.542;2023-03-13T02:54:18;12.10;99.90
1405;DHT22;697;51.114;6.542;2023-03-13T02:56:46;12.10;99.90
1405;DHT22;697;51.114;6.542;2023-03-13T02:59:15;12.10;99.90
1405;DHT22;697;51.114;6.542;2023-03-13T03:01:42;12.10;99.90
1405;DHT22;697;51.114;6.542;2023-03-13T03:04:09;12.10;99.90
1405;DHT22;697;51.114;6.542;2023-03-13T03:06:35;12.00;99.90
1405;DHT22;697;51.114;6.542;2023-03-13T03:09:03;12.10;99.90
1405;DHT22;697;51.114;6.542;2023-03-13T03:11:29;12.10;99.90
1405;DHT22;697;51.114;6.542;2023-03-13T03:13:56;12.10;99.90
1405;DHT22;697;51.114;6.542;2023-03-13T03:16:24;12.20;99.90
1405;DHT22;697;51.114;6.542;2023-03-13T03:18:51;12.20;99.90
1405;DHT22;697;51.114;6.542;2023-03-13T03:21:17;12.30;99.90
1405;DHT22;697;51.114;6.542;2023-03-13T03:23:46;12.30;99.90
1405;DHT22;697;51.114;6.542;2023-03-13T03:26:12;12.30;99.90
1405;DHT22;697;51.114;6.542;2023-03-13T03:28:39;12.40;99.90
1405;DHT22;697;51.114;6.542;2023-03-13T03:31:07;12.30;99.90
1405;DHT22;697;51.114;6.542;2023-03-13T03:33:35;12.40;99.90
1405;DHT22;697;51.114;6.542;2023-03-13T03:36:04;12.40;99.90
1405;DHT22;697;51.114;6.542;2023-03-13T03:38:31;12.40;99.90
1405;DHT22;697;51.114;6.542;2023-03-13T03:40:58;12.40;99.90
1405;DHT22;697;51.114;6.542;2023-03-13T03:43:25;12.40;99.90
1405;DHT22;697;51.114;6.542;2023-03-13T03:45:52;12.40;99.90
1405;DHT22;697;51.114;6.542;2023-03-13T03:48:18;12.50;99.90
1405;DHT22;697;51.114;6.542;2023-03-13T03:50:46;12.50;99.90
1405;DHT22;697;51.114;6.542;2023-03-13T03:53:13;12.60;99.90
1405;DHT22;697;51.114;6.542;2023-03-13T03:55:40;12.50;99.90
1405;DHT22;697;51.114;6.542;2023-03-13T03:58:06;12.60;99.90
1405;DHT22;697;51.114;6.542;2023-03-13T04:00:33;12.60;99.90
1405;DHT22;697;51.114;6.542;2023-03-13T04:03:00;12.70;99.90
1405;DHT22;697;51.114;6.542;2023-03-13T04:05:26;12.70;99.90
1405;DHT22;697;51.114;6.542;2023-03-13T04:07:54;12.70;99.90
1405;DHT22;697;51.114;6.542;2023-03-13T04:10:21;12.70;99.90
1405;DHT22;697;51.114;6.542;2023-03-13T04:12:48;12.70;99.90
1405;DHT22;697;51.114;6.542;2023-03-13T04:15:14;12.80;99.90
1405;DHT22;697;51.114;6.542;2023-03-13T04:17:41;12.80;99.90
1405;DHT22;697;51.114;6.542;2023-03-13T04:20:09;12.90;99.90
1405;DHT22;697;51.114;6.542;2023-03-13T04:22:38;12.90;99.90
1405;DHT22;697;51.114;6.542;2023-03-13T04:25:06;12.90;99.90
1405;DHT22;697;51.114;6.542;2023-03-13T04:27:33;13.00;99.90
1405;DHT22;697;51.114;6.542;2023-03-13T04:30:00;13.00;99.90
1405;DHT22;697;51.114;6.542;2023-03-13T04:32:27;13.00;99.90
1405;DHT22;697;51.114;6.542;2023-03-13T04:34:54;13.10;99.90
1405;DHT22;697;51.114;6.542;2023-03-13T04:37:20;13.10;99.90
1405;DHT22;697;51.114;6.542;2023-03-13T04:39:47;13.10;99.90
1405;DHT22;697;51.114;6.542;2023-03-13T04:42:15;13.10;99.90
1405;DHT22;697;51.114;6.542;2023-03-13T04:44:42;13.10;99.90
1405;DHT22;697;51.114;6.542;2023-03-13T04:47:08;13.20;99.90
1405;DHT22;697;51.114;6.542;2023-03-13T04:49:35;13.30;99.90
1405;DHT22;697;51.114;6.542;2023-03-13T04:52:02;13.30;99.90
1405;DHT22;697;51.114;6.542;2023-03-13T04:54:28;13.30;99.90
1405;DHT22;697;51.114;6.542;2023-03-13T04:56:55;13.30;99.90
1405;DHT22;697;51.114;6.542;2023-03-13T04:59:23;13.40;99.90
1405;DHT22;697;51.114;6.542;2023-03-13T05:01:50;13.40;99.90
1405;DHT22;697;51.114;6.542;2023-03-13T05:04:16;13.40;99.90
1405;DHT22;697;51.114;6.542;2023-03-13T05:06:43;13.40;99.90
1405;DHT22;697;51.114;6.542;2023-03-13T05:09:10;13.40;99.90
1405;DHT22;697;51.114;6.542;2023-03-13T05:11:36;13.40;99.90
1405;DHT22;697;51.114;6.542;2023-03-13T05:14:04;13.40;99.90
1405;DHT22;697;51.114;6.542;2023-03-13T05:16:35;13.40;99.90
1405;DHT22;697;51.114;6.542;2023-03-13T05:19:01;13.40;99.90
1405;DHT22;697;51.114;6.542;2023-03-13T05:21:28;13.40;99.90
1405;DHT22;697;51.114;6.542;2023-03-13T05:23:55;13.50;99.90
1405;DHT22;697;51.114;6.542;2023-03-13T05:26:22;13.50;99.90
1405;DHT22;697;51.114;6.542;2023-03-13T05:28:48;13.50;99.90
1405;DHT22;697;51.114;6.542;2023-03-13T05:31:15;13.50;99.90
1405;DHT22;697;51.114;6.542;2023-03-13T05:33:43;13.50;99.90
1405;DHT22;697;51.114;6.542;2023-03-13T05:36:10;13.50;99.90
1405;DHT22;697;51.114;6.542;2023-03-13T05:38:36;13.50;99.90
1405;DHT22;697;51.114;6.542;2023-03-13T05:41:03;13.60;99.90
1405;DHT22;697;51.114;6.542;2023-03-13T05:43:30;13.60;99.90
1405;DHT22;697;51.114;6.542;2023-03-13T05:45:57;13.60;99.90
1405;DHT22;697;51.114;6.542;2023-03-13T05:48:23;13.60;99.90
1405;DHT22;697;51.114;6.542;2023-03-13T05:50:51;13.60;99.90
1405;DHT22;697;51.114;6.542;2023-03-13T05:53:18;13.60;99.90
1405;DHT22;697;51.114;6.542;2023-03-13T05:55:45;13.60;99.90
1405;DHT22;697;51.114;6.542;2023-03-13T05:58:12;13.60;99.90
1405;DHT22;697;51.114;6.542;2023-03-13T06:00:38;13.70;99.90
1405;DHT22;697;51.114;6.542;2023-03-13T06:03:05;13.70;99.90
1405;DHT22;697;51.114;6.542;2023-03-13T06:05:32;13.70;99.90
1405;DHT22;697;51.114;6.542;2023-03-13T06:08:00;13.80;99.90
1405;DHT22;697;51.114;6.542;2023-03-13T06:10:27;13.70;99.90
1405;DHT22;697;51.114;6.542;2023-03-13T06:12:55;13.80;99.90
1405;DHT22;697;51.114;6.542;2023-03-13T06:15:22;13.80;99.90
1405;DHT22;697;51.114;6.542;2023-03-13T06:17:49;13.80;99.90
1405;DHT22;697;51.114;6.542;2023-03-13T06:20:16;13.80;99.90
1405;DHT22;697;51.114;6.542;2023-03-13T06:22:43;13.90;99.90
1405;DHT22;697;51.114;6.542;2023-03-13T06:25:11;13.90;99.90
1405;DHT22;697;51.114;6.542;2023-03-13T06:27:38;13.90;99.90
1405;DHT22;697;51.114;6.542;2023-03-13T06:30:09;13.90;99.90
1405;DHT22;697;51.114;6.542;2023-03-13T06:32:36;13.90;99.90
1405;DHT22;697;51.114;6.542;2023-03-13T06:35:03;14.00;99.90
1405;DHT22;697;51.114;6.542;2023-03-13T06:37:30;14.00;99.90
1405;DHT22;697;51.114;6.542;2023-03-13T06:39:57;14.00;99.90
1405;DHT22;697;51.114;6.542;2023-03-13T06:42:25;14.00;99.90
1405;DHT22;697;51.114;6.542;2023-03-13T06:44:51;14.00;99.90
1405;DHT22;697;51.114;6.542;2023-03-13T06:47:18;14.00;99.90
1405;DHT22;697;51.114;6.542;2023-03-13T06:49:45;14.00;99.90
1405;DHT22;697;51.114;6.542;2023-03-13T06:52:11;14.00;99.90
1405;DHT22;697;51.114;6.542;2023-03-13T06:54:38;14.00;99.90
1405;DHT22;697;51.114;6.542;2023-03-13T06:57:05;14.00;99.90
1405;DHT22;697;51.114;6.542;2023-03-13T06:59:33;14.00;99.90
1405;DHT22;697;51.114;6.542;2023-03-13T07:01:59;14.10;99.90
1405;DHT22;697;51.114;6.542;2023-03-13T07:04:26;14.10;99.90
1405;DHT22;697;51.114;6.542;2023-03-13T07:06:53;14.10;99.90
1405;DHT22;697;51.114;6.542;2023-03-13T07:09:20;14.20;99.90
1405;DHT22;697;51.114;6.542;2023-03-13T07:11:46;14.20;99.90
1405;DHT22;697;51.114;6.542;2023-03-13T07:14:13;14.20;99.90
1405;DHT22;697;51.114;6.542;2023-03-13T07:16:41;14.30;99.90
1405;DHT22;697;51.114;6.542;2023-03-13T07:19:08;14.30;99.90
1405;DHT22;697;51.114;6.542;2023-03-13T07:21:35;14.30;99.90
1405;DHT22;697;51.114;6.542;2023-03-13T07:24:02;14.40;99.90
1405;DHT22;697;51.114;6.542;2023-03-13T07:26:28;14.40;99.90
1405;DHT22;697;51.114;6.542;2023-03-13T07:28:55;14.40;99.90
1405;DHT22;697;51.114;6.542;2023-03-13T07:31:22;14.50;99.90
1405;DHT22;697;51.114;6.542;2023-03-13T07:33:52;14.50;99.90
1405;DHT22;697;51.114;6.542;2023-03-13T07:36:21;14.60;99.90
1405;DHT22;697;51.114;6.542;2023-03-13T07:38:48;14.60;99.90
1405;DHT22;697;51.114;6.542;2023-03-13T07:41:16;14.70;99.90
1405;DHT22;697;51.114;6.542;2023-03-13T07:43:43;14.60;99.90
1405;DHT22;697;51.114;6.542;2023-03-13T07:46:11;14.70;99.90
1405;DHT22;697;51.114;6.542;2023-03-13T07:48:41;14.70;99.90
1405;DHT22;697;51.114;6.542;2023-03-13T07:51:12;14.70;99.90
1405;DHT22;697;51.114;6.542;2023-03-13T07:53:39;14.70;99.90
1405;DHT22;697;51.114;6.542;2023-03-13T07:56:07;14.70;99.90
1405;DHT22;697;51.114;6.542;2023-03-13T07:58:37;14.70;99.90
1405;DHT22;697;51.114;6.542;2023-03-13T08:01:08;14.70;99.90
1405;DHT22;697;51.114;6.542;2023-03-13T08:03:35;14.70;99.90
1405;DHT22;697;51.114;6.542;2023-03-13T08:06:03;14.70;99.90
1405;DHT22;697;51.114;6.542;2023-03-13T08:08:31;14.80;99.90
1405;DHT22;697;51.114;6.542;2023-03-13T08:10:59;14.70;99.90
1405;DHT22;697;51.114;6.542;2023-03-13T08:13:26;14.70;99.90
1405;DHT22;697;51.114;6.542;2023-03-13T08:16:01;14.70;99.90
1405;DHT22;697;51.114;6.542;2023-03-13T08:18:28;14.70;99.90
1405;DHT22;697;51.114;6.542;2023-03-13T08:21:00;14.70;99.90
1405;DHT22;697;51.114;6.542;2023-03-13T08:23:27;14.70;99.90
1405;DHT22;697;51.114;6.542;2023-03-13T08:26:00;14.70;99.90
1405;DHT22;697;51.114;6.542;2023-03-13T08:28:27;14.80;99.90
1405;DHT22;697;51.114;6.542;2023-03-13T08:30:54;14.80;99.90
1405;DHT22;697;51.114;6.542;2023-03-13T08:33:20;14.80;99.90
1405;DHT22;697;51.114;6.542;2023-03-13T08:35:47;14.80;99.90
1405;DHT22;697;51.114;6.542;2023-03-13T08:38:14;14.90;99.90
1405;DHT22;697;51.114;6.542;2023-03-13T08:40:40;14.80;99.90
1405;DHT22;697;51.114;6.542;2023-03-13T08:43:08;14.90;99.90
1405;DHT22;697;51.114;6.542;2023-03-13T08:45:35;14.90;99.90
1405;DHT22;697;51.114;6.542;2023-03-13T08:48:02;15.00;99.90
1405;DHT22;697;51.114;6.542;2023-03-13T08:50:28;15.00;99.90
1405;DHT22;697;51.114;6.542;2023-03-13T08:52:55;14.90;99.90
1405;DHT22;697;51.114;6.542;2023-03-13T08:55:22;14.90;99.90
1405;DHT22;697;51.114;6.542;2023-03-13T08:57:48;14.90;99.90
1405;DHT22;697;51.114;6.542;2023-03-13T09:00:17;15.00;99.90
1405;DHT22;697;51.114;6.542;2023-03-13T09:02:44;15.00;99.90
1405;DHT22;697;51.114;6.542;2023-03-13T09:05:11;15.10;99.90
1405;DHT22;697;51.114;6.542;2023-03-13T09:07:37;15.20;99.90
1405;DHT22;697;51.114;6.542;2023-03-13T09:10:05;15.20;99.90
1405;DHT22;697;51.114;6.542;2023-03-13T09:12:32;15.20;99.90
1405;DHT22;697;51.114;6.542;2023-03-13T09:14:58;15.30;99.90
1405;DHT22;697;51.114;6.542;2023-03-13T09:17:26;15.30;99.90
1405;DHT22;697;51.114;6.542;2023-03-13T09:19:53;15.50;99.90
1405;DHT22;697;51.114;6.542;2023-03-13T09:22:20;15.70;99.90
1405;DHT22;697;51.114;6.542;2023-03-13T09:24:47;15.80;99.90
1405;DHT22;697;51.114;6.542;2023-03-13T09:27:13;15.90;99.90
1405;DHT22;697;51.114;6.542;2023-03-13T09:29:40;15.90;99.90
1405;DHT22;697;51.114;6.542;2023-03-13T09:32:09;15.90;99.90
1405;DHT22;697;51.114;6.542;2023-03-13T09:34:37;15.90;99.90
1405;DHT22;697;51.114;6.542;2023-03-13T09:37:03;16.00;99.90
1405;DHT22;697;51.114;6.542;2023-03-13T09:39:30;16.10;99.90
1405;DHT22;697;51.114;6.542;2023-03-13T09:42:02;16.00;99.90
1405;DHT22;697;51.114;6.542;2023-03-13T09:44:32;15.90;99.90
1405;DHT22;697;51.114;6.542;2023-03-13T09:47:03;15.90;99.90
1405;DHT22;697;51.114;6.542;2023-03-13T09:49:34;15.80;99.90
1405;DHT22;697;51.114;6.542;2023-03-13T09:52:13;15.90;99.90
1405;DHT22;697;51.114;6.542;2023-03-13T09:54:45;16.00;99.90
1405;DHT22;697;51.114;6.542;2023-03-13T09:57:16;16.10;99.90
1405;DHT22;697;51.114;6.542;2023-03-13T09:59:47;16.30;99.90
1405;DHT22;697;51.114;6.542;2023-03-13T10:02:23;16.50;99.90
1405;DHT22;697;51.114;6.542;2023-03-13T10:04:54;16.60;99.90
1405;DHT22;697;51.114;6.542;2023-03-13T10:07:23;16.80;99.90
1405;DHT22;697;51.114;6.542;2023-03-13T10:09:50;16.90;99.40
1405;DHT22;697;51.114;6.542;2023-03-13T10:12:19;17.00;99.30
1405;DHT22;697;51.114;6.542;2023-03-13T10:14:59;17.00;98.60
1405;DHT22;697;51.114;6.542;2023-03-13T10:17:32;17.00;98.70
1405;DHT22;697;51.114;6.542;2023-03-13T10:20:01;17.10;98.60
1405;DHT22;697;51.114;6.542;2023-03-13T10:22:34;17.20;99.00
1405;DHT22;697;51.114;6.542;2023-03-13T10:25:06;17.30;98.50
1405;DHT22;697;51.114;6.542;2023-03-13T10:27:42;17.40;97.70
1405;DHT22;697;51.114;6.542;2023-03-13T10:30:20;17.60;97.70
1405;DHT22;697;51.114;6.542;2023-03-13T10:32:48;17.60;97.00
1405;DHT22;697;51.114;6.542;2023-03-13T10:35:20;17.60;96.80
1405;DHT22;697;51.114;6.542;2023-03-13T10:37:49;17.70;96.60
1405;DHT22;697;51.114;6.542;2023-03-13T10:40:21;17.60;96.90
1405;DHT22;697;51.114;6.542;2023-03-13T10:42:50;17.70;96.90
1405;DHT22;697;51.114;6.542;2023-03-13T10:45:19;17.70;96.70
1405;DHT22;697;51.114;6.542;2023-03-13T10:47:53;17.80;96.40
1405;DHT22;697;51.114;6.542;2023-03-13T10:50:22;17.80;96.10
1405;DHT22;697;51.114;6.542;2023-03-13T10:52:51;18.00;95.90
1405;DHT22;697;51.114;6.542;2023-03-13T10:55:20;18.10;95.60
1405;DHT22;697;51.114;6.542;2023-03-13T10:57:58;18.10;94.80
1405;DHT22;697;51.114;6.542;2023-03-13T11:00:33;17.90;94.90
1405;DHT22;697;51.114;6.542;2023-03-13T11:03:01;17.90;95.10
1405;DHT22;697;51.114;6.542;2023-03-13T11:05:32;17.70;94.90
1405;DHT22;697;51.114;6.542;2023-03-13T11:08:20;17.80;95.00
1405;DHT22;697;51.114;6.542;2023-03-13T11:10:57;17.70;95.40
1405;DHT22;697;51.114;6.542;2023-03-13T11:13:35;17.80;95.30
1405;DHT22;697;51.114;6.542;2023-03-13T11:16:11;18.00;95.10
1405;DHT22;697;51.114;6.542;2023-03-13T11:18:57;18.30;95.40
1405;DHT22;697;51.114;6.542;2023-03-13T11:21:33;18.90;93.60
1405;DHT22;697;51.114;6.542;2023-03-13T11:24:06;19.10;90.40
1405;DHT22;697;51.114;6.542;2023-03-13T11:26:35;19.30;91.40
1405;DHT22;697;51.114;6.542;2023-03-13T11:29:08;19.70;89.30
1405;DHT22;697;51.114;6.542;2023-03-13T11:31:41;19.40;88.30
1405;DHT22;697;51.114;6.542;2023-03-13T11:34:16;19.20;90.30
1405;DHT22;697;51.114;6.542;2023-03-13T11:36:52;18.90;90.30
1405;DHT22;697;51.114;6.542;2023-03-13T11:39:41;18.50;90.80
1405;DHT22;697;51.114;6.542;2023-03-13T11:45:01;19.00;90.90
1405;DHT22;697;51.114;6.542;2023-03-13T11:47:42;19.40;88.90
1405;DHT22;697;51.114;6.542;2023-03-13T11:50:17;20.10;86.70
1405;DHT22;697;51.114;6.542;2023-03-13T11:53:06;20.20;83.20
1405;DHT22;697;51.114;6.542;2023-03-13T11:55:44;19.80;85.70
1405;DHT22;697;51.114;6.542;2023-03-13T12:01:08;18.90;90.10
1405;DHT22;697;51.114;6.542;2023-03-13T12:03:38;18.80;90.70
1405;DHT22;697;51.114;6.542;2023-03-13T12:06:14;18.70;90.50
1405;DHT22;697;51.114;6.542;2023-03-13T12:08:44;18.60;91.10
1405;DHT22;697;51.114;6.542;2023-03-13T12:11:16;18.50;91.80
1405;DHT22;697;51.114;6.542;2023-03-13T12:13:46;18.40;92.60
1405;DHT22;697;51.114;6.542;2023-03-13T12:16:18;18.20;92.50
1405;DHT22;697;51.114;6.542;2023-03-13T12:18:47;18.10;93.30
1405;DHT22;697;51.114;6.542;2023-03-13T12:21:18;18.00;93.00
1405;DHT22;697;51.114;6.542;2023-03-13T12:23:51;17.90;93.30
1405;DHT22;697;51.114;6.542;2023-03-13T12:26:32;17.90;93.70
1405;DHT22;697;51.114;6.542;2023-03-13T12:29:06;18.00;93.90
1405;DHT22;697;51.114;6.542;2023-03-13T12:31:37;18.00;94.10
1405;DHT22;697;51.114;6.542;2023-03-13T12:34:11;18.30;92.90
1405;DHT22;697;51.114;6.542;2023-03-13T12:36:43;18.40;92.90
1405;DHT22;697;51.114;6.542;2023-03-13T12:39:20;18.70;91.20
1405;DHT22;697;51.114;6.542;2023-03-13T12:41:56;19.50;88.80
1405;DHT22;697;51.114;6.542;2023-03-13T12:44:26;20.20;85.00
1405;DHT22;697;51.114;6.542;2023-03-13T12:47:00;20.40;80.40
1405;DHT22;697;51.114;6.542;2023-03-13T12:49:46;20.40;81.10
1405;DHT22;697;51.114;6.542;2023-03-13T12:52:33;19.90;80.30
1405;DHT22;697;51.114;6.542;2023-03-13T12:55:23;19.20;84.20
1405;DHT22;697;51.114;6.542;2023-03-13T12:58:10;18.80;88.60
1405;DHT22;697;51.114;6.542;2023-03-13T13:00:41;19.50;88.50
1405;DHT22;697;51.114;6.542;2023-03-13T13:03:26;19.80;83.60
1405;DHT22;697;51.114;6.542;2023-03-13T13:06:01;19.80;82.00
1405;DHT22;697;51.114;6.542;2023-03-13T13:08:33;20.20;83.50
1405;DHT22;697;51.114;6.542;2023-03-13T13:14:55;20.40;77.80
1405;DHT22;697;51.114;6.542;2023-03-13T13:20:37;20.00;82.10
1405;DHT22;697;51.114;6.542;2023-03-13T13:23:26;20.40;82.00
1405;DHT22;697;51.114;6.542;2023-03-13T13:32:42;22.50;68.60
1405;DHT22;697;51.114;6.542;2023-03-13T13:35:25;22.40;67.40
1405;DHT22;697;51.114;6.542;2023-03-13T13:37:52;22.30;67.90
1405;DHT22;697;51.114;6.542;2023-03-13T13:40:57;22.30;66.30
1405;DHT22;697;51.114;6.542;2023-03-13T13:43:28;21.90;66.10
1405;DHT22;697;51.114;6.542;2023-03-13T13:46:00;21.20;68.60
1405;DHT22;697;51.114;6.542;2023-03-13T13:48:28;20.60;73.70
1405;DHT22;697;51.114;6.542;2023-03-13T13:51:19;20.30;75.00
1405;DHT22;697;51.114;6.542;2023-03-13T13:53:49;20.10;77.60
1405;DHT22;697;51.114;6.542;2023-03-13T13:56:41;20.00;78.40
1405;DHT22;697;51.114;6.542;2023-03-13T13:59:24;19.80;78.90
1405;DHT22;697;51.114;6.542;2023-03-13T14:02:13;19.70;79.20
1405;DHT22;697;51.114;6.542;2023-03-13T14:04:42;19.60;80.20
1405;DHT22;697;51.114;6.542;2023-03-13T14:07:15;19.60;80.90
1405;DHT22;697;51.114;6.542;2023-03-13T14:09:48;19.70;80.90
1405;DHT22;697;51.114;6.542;2023-03-13T14:12:28;19.70;81.20
1405;DHT22;697;51.114;6.542;2023-03-13T14:15:13;19.20;82.30
1405;DHT22;697;51.114;6.542;2023-03-13T14:17:43;19.10;84.20
1405;DHT22;697;51.114;6.542;2023-03-13T14:20:24;19.10;86.50
1405;DHT22;697;51.114;6.542;2023-03-13T14:22:54;18.90;85.40
1405;DHT22;697;51.114;6.542;2023-03-13T14:25:23;19.10;86.50
1405;DHT22;697;51.114;6.542;2023-03-13T14:27:52;19.30;85.00
1405;DHT22;697;51.114;6.542;2023-03-13T14:30:21;19.40;83.50
1405;DHT22;697;51.114;6.542;2023-03-13T14:32:49;19.10;83.40
1405;DHT22;697;51.114;6.542;2023-03-13T14:35:18;18.80;85.70
1405;DHT22;697;51.114;6.542;2023-03-13T14:37:46;18.60;86.90
1405;DHT22;697;51.114;6.542;2023-03-13T14:40:25;18.30;86.90
1405;DHT22;697;51.114;6.542;2023-03-13T14:42:55;18.20;89.30
1405;DHT22;697;51.114;6.542;2023-03-13T14:45:26;18.10;90.00
1405;DHT22;697;51.114;6.542;2023-03-13T14:47:54;17.90;89.40
1405;DHT22;697;51.114;6.542;2023-03-13T14:50:22;17.90;90.40
1405;DHT22;697;51.114;6.542;2023-03-13T14:52:51;17.80;90.30
1405;DHT22;697;51.114;6.542;2023-03-13T14:55:28;17.80;90.70
1405;DHT22;697;51.114;6.542;2023-03-13T14:58:00;17.80;90.00
1405;DHT22;697;51.114;6.542;2023-03-13T15:00:34;17.80;90.90
1405;DHT22;697;51.114;6.542;2023-03-13T15:03:21;17.80;90.30
1405;DHT22;697;51.114;6.542;2023-03-13T15:06:02;17.80;90.00
1405;DHT22;697;51.114;6.542;2023-03-13T15:08:29;17.70;90.40
1405;DHT22;697;51.114;6.542;2023-03-13T15:10:56;17.70;90.90
1405;DHT22;697;51.114;6.542;2023-03-13T15:13:30;17.50;90.70
1405;DHT22;697;51.114;6.542;2023-03-13T15:15:58;17.50;91.20
1405;DHT22;697;51.114;6.542;2023-03-13T15:18:27;17.60;91.20
1405;DHT22;697;51.114;6.542;2023-03-13T15:20:56;17.80;90.20
1405;DHT22;697;51.114;6.542;2023-03-13T15:23:24;18.00;90.00
1405;DHT22;697;51.114;6.542;2023-03-13T15:25:51;18.10;89.30
1405;DHT22;697;51.114;6.542;2023-03-13T15:28:19;18.20;89.80
1405;DHT22;697;51.114;6.542;2023-03-13T15:30:49;18.10;89.40
1405;DHT22;697;51.114;6.542;2023-03-13T15:33:19;18.00;90.20
1405;DHT22;697;51.114;6.542;2023-03-13T15:35:47;17.90;89.80
1405;DHT22;697;51.114;6.542;2023-03-13T15:38:15;17.80;89.70
1405;DHT22;697;51.114;6.542;2023-03-13T15:40:42;18.10;89.10
1405;DHT22;697;51.114;6.542;2023-03-13T15:43:09;18.60;86.40
1405;DHT22;697;51.114;6.542;2023-03-13T15:45:38;19.10;84.40
1405;DHT22;697;51.114;6.542;2023-03-13T15:48:13;19.60;81.70
1405;DHT22;697;51.114;6.542;2023-03-13T15:50:41;20.00;78.50
1405;DHT22;697;51.114;6.542;2023-03-13T15:53:16;20.00;78.90
1405;DHT22;697;51.114;6.542;2023-03-13T15:55:43;19.60;78.90
1405;DHT22;697;51.114;6.542;2023-03-13T15:58:10;19.30;80.20
1405;DHT22;697;51.114;6.542;2023-03-13T16:00:38;19.00;82.50
1405;DHT22;697;51.114;6.542;2023-03-13T16:03:05;18.80;82.30
1405;DHT22;697;51.114;6.542;2023-03-13T16:05:33;18.60;80.80
1405;DHT22;697;51.114;6.542;2023-03-13T16:07:59;18.40;81.00
1405;DHT22;697;51.114;6.542;2023-03-13T16:10:28;18.40;80.30
1405;DHT22;697;51.114;6.542;2023-03-13T16:12:56;18.50;80.20
1405;DHT22;697;51.114;6.542;2023-03-13T16:15:23;18.60;79.20
1405;DHT22;697;51.114;6.542;2023-03-13T16:17:50;18.80;78.40
1405;DHT22;697;51.114;6.542;2023-03-13T16:20:19;18.90;77.10
1405;DHT22;697;51.114;6.542;2023-03-13T16:22:47;18.60;77.20
1405;DHT22;697;51.114;6.542;2023-03-13T16:25:14;18.20;78.40
1405;DHT22;697;51.114;6.542;2023-03-13T16:27:41;17.90;80.80
1405;DHT22;697;51.114;6.542;2023-03-13T16:30:14;17.60;81.90
1405;DHT22;697;51.114;6.542;2023-03-13T16:32:42;17.50;83.60
1405;DHT22;697;51.114;6.542;2023-03-13T16:35:08;17.40;83.60
1405;DHT22;697;51.114;6.542;2023-03-13T16:37:35;17.40;83.60
1405;DHT22;697;51.114;6.542;2023-03-13T16:40:12;17.20;83.80
1405;DHT22;697;51.114;6.542;2023-03-13T16:42:39;17.00;84.80
1405;DHT22;697;51.114;6.542;2023-03-13T16:45:07;16.90;86.10
1405;DHT22;697;51.114;6.542;2023-03-13T16:47:34;16.70;86.10
1405;DHT22;697;51.114;6.542;2023-03-13T16:50:00;16.60;86.20
1405;DHT22;697;51.114;6.542;2023-03-13T16:52:27;16.50;86.70